Time;durP1;ratioP1;P1;durP2;ratioP2;P2;SDS_P1;SDS_P2;PMS_P1;PMS_P2;Temp;Humidity;BMP_temperature;BMP_pressure;BME280_temperature;BME280_humidity;BME280_pressure;Samples;Min_cycle;Max_cycle;Signal;HPM_P1;HPM_P2
2024/02/28 03:49:57;;;;;;;51.92;22.17;;;;;;;;;;5023026;28;20050;-83
2024/02/28 03:52:28;;;;;;;46.80;22.63;;;;;;;;;;5022298;28;20042;-81
2024/02/28 03:54:55;;;;;;;44.25;20.48;;;;;;;;;;5020950;28;20030;-80
2024/02/28 03:57:22;;;;;;;48.55;22.63;;;;;;;;;;5017663;28;20041;-82
2024/02/28 03:59:52;;;;;;;49.80;22.67;;;;;;;;;;4997502;28;20094;-84
2024/02/28 04:02:19;;;;;;;48.45;23.45;;;;;;;;;;4999046;28;20057;-80
2024/02/28 04:04:45;;;;;;;47.80;22.02;;;;;;;;;;5002784;28;20027;-87
2024/02/28 04:07:12;;;;;;;46.85;22.40;;;;;;;;;;5016172;28;20023;-82
2024/02/28 04:09:38;;;;;;;45.80;21.02;;;;;;;;;;4998856;28;20042;-83
2024/02/28 04:12:04;;;;;;;42.00;20.77;;;;;;;;;;5002242;28;20027;-81
2024/02/28 04:14:30;;;;;;;47.78;22.83;;;;;;;;;;4993198;28;20045;-81
2024/02/28 04:16:56;;;;;;;42.97;20.45;;;;;;;;;;4998720;28;20062;-80
2024/02/28 04:19:22;;;;;;;47.83;21.75;;;;;;;;;;4998807;28;20107;-82
2024/02/28 04:21:48;;;;;;;47.03;21.65;;;;;;;;;;5013751;28;20094;-81
2024/02/28 04:24:15;;;;;;;48.88;22.02;;;;;;;;;;4997101;28;20026;-82
2024/02/28 04:26:43;;;;;;;48.72;23.48;;;;;;;;;;4993847;28;20027;-80
2024/02/28 04:29:13;;;;;;;46.22;22.95;;;;;;;;;;4996840;28;20033;-80
2024/02/28 04:31:40;;;;;;;48.63;22.80;;;;;;;;;;4993526;28;20061;-81
2024/02/28 04:34:06;;;;;;;47.72;21.33;;;;;;;;;;4995327;28;20022;-80
2024/02/28 04:36:35;;;;;;;47.83;21.52;;;;;;;;;;4992454;28;20045;-85
2024/02/28 04:39:04;;;;;;;45.20;21.10;;;;;;;;;;5005197;28;21258;-82
2024/02/28 04:41:30;;;;;;;48.35;21.67;;;;;;;;;;4992709;28;20031;-82
2024/02/28 04:43:56;;;;;;;47.53;22.92;;;;;;;;;;4996516;28;20034;-81
2024/02/28 04:46:22;;;;;;;48.75;21.75;;;;;;;;;;4995352;28;20089;-81
2024/02/28 04:48:48;;;;;;;45.50;21.95;;;;;;;;;;4997797;28;20038;-80
2024/02/28 04:51:17;;;;;;;43.95;20.95;;;;;;;;;;5003037;28;20061;-81
2024/02/28 04:53:44;;;;;;;46.75;21.10;;;;;;;;;;4995779;28;20109;-83
2024/02/28 04:56:10;;;;;;;46.22;21.17;;;;;;;;;;4996563;28;20041;-82
2024/02/28 04:58:40;;;;;;;46.30;22.60;;;;;;;;;;5000832;28;20502;-80
2024/02/28 05:01:06;;;;;;;48.05;21.83;;;;;;;;;;4994844;28;20081;-81
2024/02/28 05:03:32;;;;;;;46.17;21.48;;;;;;;;;;4991992;28;20033;-81
2024/02/28 05:05:58;;;;;;;48.00;21.83;;;;;;;;;;5001731;28;20027;-83
2024/02/28 05:08:25;;;;;;;48.60;21.63;;;;;;;;;;4999387;28;20035;-80
2024/02/28 05:10:51;;;;;;;46.53;21.70;;;;;;;;;;4997978;28;20038;-83
2024/02/28 05:13:17;;;;;;;49.33;21.80;;;;;;;;;;4998022;28;20042;-81
2024/02/28 05:15:43;;;;;;;47.05;21.95;;;;;;;;;;4989098;28;20038;-84
2024/02/28 05:18:09;;;;;;;44.97;21.65;;;;;;;;;;4994665;28;20022;-82
2024/02/28 05:20:36;;;;;;;48.42;22.73;;;;;;;;;;5003920;28;20034;-80
2024/02/28 05:23:02;;;;;;;45.33;20.70;;;;;;;;;;5018939;28;20106;-81
2024/02/28 05:25:31;;;;;;;46.45;20.75;;;;;;;;;;5039430;28;20026;-85
2024/02/28 05:27:57;;;;;;;45.35;20.80;;;;;;;;;;5009721;28;20040;-84
2024/02/28 05:30:23;;;;;;;48.95;21.83;;;;;;;;;;5012149;28;20006;-87
2024/02/28 05:32:50;;;;;;;45.67;21.50;;;;;;;;;;5011572;28;20019;-83
2024/02/28 05:35:16;;;;;;;46.60;20.45;;;;;;;;;;5009117;28;20029;-87
2024/02/28 05:37:42;;;;;;;47.65;21.08;;;;;;;;;;4997928;28;20049;-85
2024/02/28 05:40:09;;;;;;;44.13;19.88;;;;;;;;;;4995420;28;20039;-84
2024/02/28 05:42:35;;;;;;;43.45;20.63;;;;;;;;;;4991324;28;20055;-84
2024/02/28 05:45:01;;;;;;;48.28;21.95;;;;;;;;;;4997051;28;20057;-82
2024/02/28 05:47:28;;;;;;;48.05;20.63;;;;;;;;;;4993545;28;20034;-80
2024/02/28 05:49:55;;;;;;;45.55;20.95;;;;;;;;;;4996271;28;20082;-85
2024/02/28 05:52:22;;;;;;;50.13;21.42;;;;;;;;;;4993049;28;20030;-82
2024/02/28 05:54:48;;;;;;;49.35;21.52;;;;;;;;;;5019619;28;20042;-83
2024/02/28 05:57:14;;;;;;;43.45;20.73;;;;;;;;;;4994872;28;20030;-80
2024/02/28 05:59:40;;;;;;;49.08;21.15;;;;;;;;;;4993552;28;20042;-82
2024/02/28 06:02:06;;;;;;;44.47;22.52;;;;;;;;;;4992523;28;20068;-82
2024/02/28 06:04:35;;;;;;;48.75;21.52;;;;;;;;;;4995993;28;20030;-83
2024/02/28 06:07:02;;;;;;;55.00;23.33;;;;;;;;;;5022003;28;20018;-83
2024/02/28 06:09:28;;;;;;;47.30;21.80;;;;;;;;;;5015842;28;20030;-82
2024/02/28 06:11:54;;;;;;;47.95;21.70;;;;;;;;;;4996808;28;20031;-82
2024/02/28 06:14:20;;;;;;;47.53;21.17;;;;;;;;;;4993987;28;20042;-82
2024/02/28 06:16:49;;;;;;;42.67;20.48;;;;;;;;;;5005616;28;20042;-81
2024/02/28 06:19:18;;;;;;;48.83;20.63;;;;;;;;;;4984955;28;20039;-81
2024/02/28 06:21:45;;;;;;;50.67;21.20;;;;;;;;;;4991900;28;20038;-81
2024/02/28 06:24:11;;;;;;;51.00;20.05;;;;;;;;;;5005861;28;20090;-79
2024/02/28 06:26:37;;;;;;;52.45;22.13;;;;;;;;;;4992054;28;20030;-81
2024/02/28 06:29:06;;;;;;;51.90;23.02;;;;;;;;;;4989821;28;20030;-79
2024/02/28 06:31:32;;;;;;;51.78;22.02;;;;;;;;;;5004320;28;20031;-81
2024/02/28 06:33:58;;;;;;;59.60;24.15;;;;;;;;;;4994905;28;20033;-80
2024/02/28 06:36:24;;;;;;;55.15;22.90;;;;;;;;;;4991396;28;20080;-81
2024/02/28 06:38:50;;;;;;;56.25;23.50;;;;;;;;;;4992064;28;20498;-81
2024/02/28 06:41:16;;;;;;;56.53;22.98;;;;;;;;;;4999640;28;20383;-81
2024/02/28 06:43:42;;;;;;;62.38;22.45;;;;;;;;;;4998633;28;20033;-79
2024/02/28 06:46:09;;;;;;;56.95;23.30;;;;;;;;;;4992465;28;20090;-83
2024/02/28 06:48:35;;;;;;;55.47;22.98;;;;;;;;;;4998162;28;20057;-81
2024/02/28 06:51:01;;;;;;;85.78;23.55;;;;;;;;;;5015395;28;20414;-82
2024/02/28 06:53:27;;;;;;;64.15;22.90;;;;;;;;;;4997520;28;20035;-80
2024/02/28 06:55:53;;;;;;;58.35;22.05;;;;;;;;;;4999495;28;20038;-82
2024/02/28 06:58:19;;;;;;;57.10;22.63;;;;;;;;;;4998145;28;20392;-84
2024/02/28 07:00:45;;;;;;;66.15;26.25;;;;;;;;;;4999754;28;20092;-82
2024/02/28 07:03:11;;;;;;;64.43;24.48;;;;;;;;;;4992270;28;20090;-80
2024/02/28 07:05:38;;;;;;;56.83;23.25;;;;;;;;;;5001501;28;20745;-82
2024/02/28 07:08:04;;;;;;;60.45;24.67;;;;;;;;;;4997526;28;20030;-80
2024/02/28 07:10:30;;;;;;;62.47;23.85;;;;;;;;;;4991645;28;20442;-82
2024/02/28 07:12:57;;;;;;;57.25;22.20;;;;;;;;;;5012426;28;20030;-79
2024/02/28 07:15:23;;;;;;;56.05;22.40;;;;;;;;;;4995282;28;20597;-84
2024/02/28 07:17:49;;;;;;;60.72;23.38;;;;;;;;;;4995104;28;20038;-83
2024/02/28 07:20:15;;;;;;;57.47;23.38;;;;;;;;;;4997370;28;20037;-80
2024/02/28 07:22:43;;;;;;;51.90;21.30;;;3.10;99.90;;;;;;4991611;28;20094;-82
2024/02/28 07:25:09;;;;;;;52.38;22.90;;;;;;;;;;4997467;28;20057;-83
2024/02/28 07:27:35;;;;;;;51.92;22.83;;;;;;;;;;4992837;28;20033;-80
2024/02/28 07:30:03;;;;;;;63.58;23.92;;;3.10;99.90;;;;;;4999469;28;20023;-82
2024/02/28 07:32:34;;;;;;;52.60;23.30;;;;;;;;;;4991653;28;20039;-83
2024/02/28 07:35:00;;;;;;;59.10;23.42;;;;;;;;;;4986962;28;20041;-83
2024/02/28 07:37:26;;;;;;;53.88;23.15;;;;;;;;;;4987542;28;20042;-82
2024/02/28 07:39:52;;;;;;;53.53;22.40;;;;;;;;;;4992539;28;20054;-82
2024/02/28 07:42:18;;;;;;;58.10;22.58;;;3.20;99.90;;;;;;4992539;28;20046;-83
2024/02/28 07:44:44;;;;;;;50.58;21.30;;;;;;;;;;4991361;28;20038;-83
2024/02/28 07:47:10;;;;;;;56.58;21.42;;;;;;;;;;4991212;28;20039;-82
2024/02/28 07:49:36;;;;;;;51.58;20.63;;;;;;;;;;4989109;28;20468;-84
2024/02/28 07:52:02;;;;;;;48.78;20.77;;;;;;;;;;4992803;28;20230;-79
2024/02/28 07:54:28;;;;;;;45.90;20.25;;;;;;;;;;4990145;28;20034;-82
2024/02/28 07:56:54;;;;;;;47.00;20.30;;;;;;;;;;4979992;28;20656;-81
2024/02/28 07:59:20;;;;;;;49.83;20.73;;;;;;;;;;4985250;28;20042;-82
2024/02/28 08:01:46;;;;;;;53.88;20.45;;;;;;;;;;4987116;28;20102;-82
2024/02/28 08:04:12;;;;;;;56.00;23.27;;;;;;;;;;4988068;28;20038;-83
2024/02/28 08:06:40;;;;;;;55.22;22.63;;;3.30;99.90;;;;;;4994963;28;20034;-82
2024/02/28 08:09:07;;;;;;;52.90;21.02;;;;;;;;;;4989134;28;20027;-82
2024/02/28 08:11:33;;;;;;;60.35;22.25;;;;;;;;;;4988276;28;20124;-84
2024/02/28 08:13:59;;;;;;;62.72;23.15;;;;;;;;;;4986516;28;20091;-83
2024/02/28 08:16:25;;;;;;;51.55;20.77;;;;;;;;;;5003000;28;20038;-84
2024/02/28 08:18:51;;;;;;;50.95;21.88;;;;;;;;;;4986708;28;20065;-83
2024/02/28 08:21:18;;;;;;;55.72;22.95;;;;;;;;;;4991583;28;20034;-83
2024/02/28 08:23:44;;;;;;;53.92;21.80;;;;;;;;;;5001198;28;20026;-83
2024/02/28 08:26:11;;;;;;;51.90;22.60;;;3.50;99.90;;;;;;4986330;28;20118;-82
2024/02/28 08:28:36;;;;;;;55.72;23.15;;;;;;;;;;4988924;28;20027;-82
2024/02/28 08:31:02;;;;;;;49.58;20.42;;;3.50;99.90;;;;;;4988422;28;20032;-82
2024/02/28 08:33:28;;;;;;;50.75;21.33;;;;;;;;;;4986125;28;20057;-83
2024/02/28 08:35:54;;;;;;;53.53;21.50;;;3.70;99.90;;;;;;4990250;28;20771;-83
2024/02/28 08:38:20;;;;;;;47.95;19.83;;;;;;;;;;4986398;28;20045;-81
2024/02/28 08:40:46;;;;;;;54.00;22.92;;;3.80;99.90;;;;;;4991053;28;20042;-82
2024/02/28 08:43:11;;;;;;;54.78;21.67;;;3.80;99.90;;;;;;4987593;28;20530;-85
2024/02/28 08:45:37;;;;;;;49.28;20.60;;;;;;;;;;4993151;28;20026;-84
2024/02/28 08:48:04;;;;;;;48.28;19.50;;;;;;;;;;5002529;28;20065;-83
2024/02/28 08:50:30;;;;;;;48.97;20.48;;;;;;;;;;4986047;28;20470;-82
2024/02/28 08:52:56;;;;;;;46.97;19.13;;;;;;;;;;4989361;28;20378;-83
2024/02/28 08:55:21;;;;;;;50.97;21.58;;;4.00;99.90;;;;;;5002848;28;20126;-80
2024/02/28 08:57:48;;;;;;;42.75;18.27;;;;;;;;;;4985490;28;20094;-82
2024/02/28 09:00:15;;;;;;;43.55;18.17;;;4.30;99.90;;;;;;4986249;28;20053;-80
2024/02/28 09:02:41;;;;;;;48.03;20.00;;;4.30;99.90;;;;;;4989526;28;20026;-82
2024/02/28 09:05:07;;;;;;;47.60;20.77;;;4.20;99.90;;;;;;4985971;28;20039;-80
2024/02/28 09:07:35;;;;;;;46.75;18.95;;;4.20;99.90;;;;;;5005280;28;20499;-83
2024/02/28 09:10:01;;;;;;;44.95;17.70;;;;;;;;;;4995697;28;20018;-83
2024/02/28 09:12:27;;;;;;;46.55;19.15;;;;;;;;;;4987703;28;20052;-82
2024/02/28 09:14:56;;;;;;;49.13;20.70;;;4.20;99.90;;;;;;4991178;28;20034;-81
2024/02/28 09:17:25;;;;;;;44.63;19.02;;;4.30;99.90;;;;;;4984290;28;20465;-80
2024/02/28 09:19:51;;;;;;;41.35;17.02;;;4.30;99.90;;;;;;4993358;28;20113;-83
2024/02/28 09:22:17;;;;;;;43.50;18.58;;;4.30;99.90;;;;;;4988957;28;20043;-83
2024/02/28 09:24:44;;;;;;;42.13;18.50;;;;;;;;;;4992372;28;20022;-84
2024/02/28 09:27:09;;;;;;;38.67;18.25;;;4.50;99.90;;;;;;4989870;28;20030;-83
2024/02/28 09:29:35;;;;;;;45.67;20.05;;;;;;;;;;5000757;28;20092;-85
2024/02/28 09:32:02;;;;;;;47.50;19.75;;;;;;;;;;4996750;28;20054;-85
2024/02/28 09:34:28;;;;;;;53.70;19.95;;;;;;;;;;4993414;28;20043;-81
2024/02/28 09:36:54;;;;;;;42.67;17.90;;;;;;;;;;4992932;28;20057;-80
2024/02/28 09:39:21;;;;;;;44.30;19.20;;;;;;;;;;4997068;28;20054;-82
2024/02/28 09:41:50;;;;;;;42.17;19.13;;;;;;;;;;4994936;28;20080;-81
2024/02/28 09:44:16;;;;;;;47.60;19.38;;;;;;;;;;4997418;28;20037;-81
2024/02/28 09:46:43;;;;;;;48.60;20.52;;;;;;;;;;5000217;28;20041;-81
2024/02/28 09:49:10;;;;;;;44.90;18.27;;;4.70;99.90;;;;;;4996815;28;20054;-80
2024/02/28 09:51:36;;;;;;;41.55;18.40;;;;;;;;;;4999341;28;20040;-84
2024/02/28 09:54:05;;;;;;;46.15;18.45;;;4.90;99.90;;;;;;4999610;28;20245;-82
2024/02/28 09:56:31;;;;;;;46.15;20.25;;;;;;;;;;5006553;28;20057;-80
2024/02/28 09:58:58;;;;;;;42.28;18.98;;;4.80;99.90;;;;;;5009145;28;20038;-82
2024/02/28 10:01:26;;;;;;;41.85;18.35;;;4.90;99.90;;;;;;5012695;28;20042;-88
2024/02/28 10:03:56;;;;;;;44.53;19.92;;;;;;;;;;5001259;28;20026;-80
2024/02/28 10:06:22;;;;;;;45.85;21.40;;;;;;;;;;4995248;28;20026;-80
2024/02/28 10:08:48;;;;;;;40.75;18.20;;;;;;;;;;5002497;28;20046;-84
2024/02/28 10:11:21;;;;;;;40.50;18.25;;;5.10;99.90;;;;;;4999287;28;20106;-88
2024/02/28 10:13:48;;;;;;;38.70;17.75;;;;;;;;;;5025737;28;20130;-82
2024/02/28 10:16:17;;;;;;;38.13;17.80;;;;;;;;;;4992582;28;20475;-80
2024/02/28 10:18:43;;;;;;;42.55;18.67;;;;;;;;;;4999817;28;20540;-82
2024/02/28 10:21:12;;;;;;;43.78;19.75;;;;;;;;;;5008096;28;20065;-84
2024/02/28 10:23:38;;;;;;;53.92;29.35;;;;;;;;;;5008416;28;20101;-80
2024/02/28 10:26:04;;;;;;;41.75;19.02;;;;;;;;;;4997068;28;20065;-82
2024/02/28 10:28:30;;;;;;;43.15;19.52;;;;;;;;;;4991402;28;20034;-81
2024/02/28 10:30:56;;;;;;;43.28;19.92;;;;;;;;;;4987059;28;20094;-83
2024/02/28 10:33:22;;;;;;;47.05;20.67;;;;;;;;;;4999490;28;20053;-81
2024/02/28 10:35:53;;;;;;;49.90;20.80;;;5.10;99.90;;;;;;5000041;28;20026;-80
2024/02/28 10:38:20;;;;;;;48.78;20.60;;;;;;;;;;4997390;28;20584;-85
2024/02/28 10:40:47;;;;;;;46.75;19.20;;;5.40;99.90;;;;;;4994395;28;20022;-83
2024/02/28 10:43:14;;;;;;;44.50;18.98;;;;;;;;;;4996063;28;20094;-80
2024/02/28 10:45:40;;;;;;;45.13;21.58;;;;;;;;;;5000863;28;20479;-82
2024/02/28 10:48:07;;;;;;;47.10;21.50;;;;;;;;;;4998589;28;20034;-81
2024/02/28 10:50:34;;;;;;;39.03;19.65;;;;;;;;;;4995043;28;20022;-79
2024/02/28 10:53:02;;;;;;;40.65;18.42;;;5.60;99.90;;;;;;4988374;28;20045;-85
2024/02/28 10:55:34;;;;;;;43.08;20.05;;;5.60;99.90;;;;;;4994760;28;20051;-84
2024/02/28 10:58:07;;;;;;;45.90;21.27;;;5.70;99.90;;;;;;4990508;28;20157;-84
2024/02/28 11:00:34;;;;;;;46.67;20.45;;;5.70;99.90;;;;;;5010428;28;20031;-81
2024/02/28 11:03:03;;;;;;;42.17;18.58;;;5.90;99.90;;;;;;4991225;28;20082;-81
2024/02/28 11:05:38;;;;;;;44.10;19.70;;;;;;;;;;4995278;28;20081;-83
2024/02/28 11:08:09;;;;;;;45.97;19.92;;;6.10;99.90;;;;;;4996627;28;20026;-85
2024/02/28 11:10:35;;;;;;;41.03;20.15;;;;;;;;;;4988263;28;20030;-83
2024/02/28 11:13:01;;;;;;;45.65;20.17;;;6.20;99.90;;;;;;4991248;28;20039;-83
2024/02/28 11:15:30;;;;;;;40.40;18.38;;;;;;;;;;5001603;28;20053;-85
2024/02/28 11:18:07;;;;;;;42.60;20.17;;;6.50;99.90;;;;;;4991039;28;20038;-83
2024/02/28 11:20:34;;;;;;;45.33;20.50;;;;;;;;;;4983111;28;20034;-82
2024/02/28 11:23:01;;;;;;;46.25;21.45;;;;;;;;;;4983011;28;20057;-82
2024/02/28 11:25:26;;;;;;;47.08;22.40;;;6.50;99.90;;;;;;4994448;28;20402;-83
2024/02/28 11:27:52;;;;;;;43.33;21.92;;;;;;;;;;4986357;28;20109;-81
2024/02/28 11:30:19;;;;;;;45.35;21.63;;;;;;;;;;4984650;28;20041;-82
2024/02/28 11:32:45;;;;;;;46.97;21.20;;;;;;;;;;4988190;28;20061;-83
2024/02/28 11:35:12;;;;;;;47.05;20.73;;;;;;;;;;4979507;28;20066;-82
2024/02/28 11:37:41;;;;;;;44.95;20.25;;;;;;;;;;4979430;28;20507;-82
2024/02/28 11:40:09;;;;;;;45.25;19.35;;;;;;;;;;4973085;28;20117;-81
2024/02/28 11:42:35;;;;;;;50.42;22.70;;;;;;;;;;4971128;28;20511;-80
2024/02/28 11:45:05;;;;;;;47.80;22.75;;;;;;;;;;4998784;28;20459;-84
2024/02/28 11:47:31;;;;;;;48.92;21.17;;;;;;;;;;4973713;28;20069;-82
2024/02/28 11:50:04;;;;;;;47.35;21.60;;;7.00;99.90;;;;;;4978842;28;20042;-80
2024/02/28 11:52:37;;;;;;;45.85;21.60;;;;;;;;;;4978444;28;20043;-82
2024/02/28 11:55:06;;;;;;;50.60;22.55;;;;;;;;;;4984918;28;20582;-80
2024/02/28 11:57:33;;;;;;;46.50;22.23;;;;;;;;;;4980295;28;20035;-79
2024/02/28 12:00:04;;;;;;;54.20;24.27;;;;;;;;;;4989698;28;20026;-82
2024/02/28 12:02:30;;;;;;;;;;;6.90;99.90;;;;;;4974035;28;20043;-82
2024/02/28 12:05:00;;;;;;;56.05;24.00;;;8.10;99.90;;;;;;4996050;28;20957;-77
2024/02/28 12:07:26;;;;;;;52.53;23.08;;;;;;;;;;4980055;28;20045;-80
2024/02/28 12:09:54;;;;;;;53.55;23.92;;;;;;;;;;5003804;28;20046;-81
2024/02/28 12:12:20;;;;;;;54.15;26.73;;;;;;;;;;4975744;28;20042;-82
2024/02/28 12:14:46;;;;;;;54.47;26.77;;;;;;;;;;4985184;28;20038;-79
2024/02/28 12:17:14;;;;;;;63.42;27.35;;;;;;;;;;4981999;28;20038;-81
2024/02/28 12:19:40;;;;;;;58.67;26.80;;;;;;;;;;4980512;28;20628;-81
2024/02/28 12:22:07;;;;;;;52.90;24.55;;;;;;;;;;4982104;28;20066;-82
2024/02/28 12:24:33;;;;;;;63.00;27.08;;;;;;;;;;4983723;28;20050;-82
2024/02/28 12:26:59;;;;;;;58.47;26.70;;;;;;;;;;4983371;28;20052;-81
2024/02/28 12:29:25;;;;;;;59.35;25.60;;;;;;;;;;4976693;28;20038;-81
2024/02/28 12:31:51;;;;;;;53.78;23.67;;;;;;;;;;4975804;28;20145;-81
2024/02/28 12:34:21;;;;;;;46.83;22.58;;;;;;;;;;4978707;28;20658;-83
2024/02/28 12:36:47;;;;;;;55.25;23.23;;;;;;;;;;4992500;28;20022;-84
2024/02/28 12:39:18;;;;;;;46.92;22.52;;;;;;;;;;4993069;28;20030;-82
2024/02/28 12:41:44;;;;;;;46.08;22.50;;;;;;;;;;5004793;28;20050;-80
2024/02/28 12:44:10;;;;;;;53.65;26.50;;;;;;;;;;4992413;28;20030;-87
2024/02/28 12:46:37;;;;;;;48.20;21.70;;;;;;;;;;4990989;28;20027;-88
2024/02/28 12:49:03;;;;;;;43.95;21.60;;;;;;;;;;5003280;28;20029;-82
2024/02/28 12:51:44;;;;;;;48.40;22.70;;;;;;;;;;4988951;28;20059;-81
2024/02/28 12:54:10;;;;;;;51.03;22.08;;;;;;;;;;4989440;28;20031;-83
2024/02/28 12:56:36;;;;;;;53.60;23.70;;;;;;;;;;4993415;28;20046;-82
2024/02/28 12:59:03;;;;;;;51.05;23.65;;;;;;;;;;4988790;28;20045;-81
2024/02/28 13:01:29;;;;;;;52.25;23.63;;;;;;;;;;4997215;28;20056;-83
2024/02/28 13:04:14;;;;;;;52.55;23.80;;;;;;;;;;5007932;22;20170;-81
2024/02/28 13:07:06;;;;;;;53.10;23.67;;;;;;;;;;5039727;28;20025;-82
2024/02/28 13:09:38;;;;;;;53.10;24.67;;;;;;;;;;5041210;28;20034;-84
2024/02/28 13:12:05;;;;;;;51.58;22.30;;;;;;;;;;5018314;28;20045;-85
2024/02/28 13:14:44;;;;;;;47.72;21.48;;;;;;;;;;5041168;28;20040;-83
2024/02/28 13:17:13;;;;;;;45.25;22.45;;;;;;;;;;5019176;28;20033;-86
2024/02/28 13:19:44;;;;;;;48.03;22.55;;;;;;;;;;5025769;28;20056;-82
2024/02/28 13:22:11;;;;;;;49.35;22.08;;;;;;;;;;5018799;28;20030;-83
2024/02/28 13:24:39;;;;;;;46.53;21.13;;;;;;;;;;5034642;28;20037;-83
2024/02/28 13:27:14;;;;;;;41.88;19.65;;;;;;;;;;5036732;28;20024;-84
2024/02/28 13:30:01;;;;;;;40.67;18.92;;;;;;;;;;5034767;28;20295;-79
2024/02/28 13:32:45;;;;;;;40.97;19.05;;;;;;;;;;5030486;28;20030;-83
2024/02/28 13:35:16;;;;;;;45.75;20.65;;;;;;;;;;5015684;28;20063;-80
2024/02/28 13:37:43;;;;;;;40.47;22.42;;;;;;;;;;5008538;28;20068;-80
2024/02/28 13:40:10;;;;;;;47.08;21.63;;;;;;;;;;5015389;28;20469;-81
2024/02/28 13:42:37;;;;;;;45.20;21.27;;;;;;;;;;5015880;28;20037;-84
2024/02/28 13:45:07;;;;;;;46.65;21.55;;;;;;;;;;5016196;28;20025;-81
2024/02/28 13:54:11;;;;;;;39.65;18.92;;;;;;;;;;5035666;28;20093;-82
2024/02/28 14:00:27;;;;;;;47.47;19.33;;;9.20;99.90;;;;;;4970232;28;20482;-83
2024/02/28 14:32:42;;;;;;;37.20;17.50;;;;;;;;;;4983096;28;20062;-79
2024/02/28 14:35:41;;;;;;;40.33;18.40;;;;;;;;;;4966340;28;20063;-80
2024/02/28 14:47:47;;;;;;;32.38;15.55;;;;;;;;;;5001865;28;20491;-83
2024/02/28 14:50:21;;;;;;;32.03;15.27;;;;;;;;;;5005699;28;20035;-81
2024/02/28 14:53:23;;;;;;;31.05;15.88;;;;;;;;;;5021219;28;20045;-82
2024/02/28 14:59:12;;;;;;;29.00;13.45;;;;;;;;;;5138393;22;20377;-87
2024/02/28 15:01:38;;;;;;;30.92;15.18;;;;;;;;;;5034454;28;20049;-88
2024/02/28 15:04:04;;;;;;;29.40;14.10;;;;;;;;;;5035701;28;20033;-90
2024/02/28 15:06:33;;;;;;;33.13;15.43;;;;;;;;;;5054550;28;20099;-89
2024/02/28 15:08:59;;;;;;;31.45;14.88;;;;;;;;;;5040232;28;20108;-89
2024/02/28 15:11:28;;;;;;;29.63;14.57;;;;;;;;;;5065934;22;20056;-84
2024/02/28 15:13:55;;;;;;;29.45;14.63;;;;;;;;;;5028765;28;20485;-83
2024/02/28 15:16:23;;;;;;;28.98;12.95;;;;;;;;;;5026961;28;20638;-85
2024/02/28 15:29:27;;;;;;;24.58;13.35;;;;;;;;;;5005133;28;20073;-86
2024/02/28 15:48:52;;;;;;;23.90;12.52;;;;;;;;;;4950786;29;20051;-85
2024/02/28 15:52:03;;;;;;;22.05;12.07;;;;;;;;;;4910946;29;20029;-84
2024/02/28 15:55:22;;;;;;;23.93;12.10;;;;;;;;;;4903438;29;20072;-85
2024/02/28 15:57:57;;;;;;;23.67;11.73;;;;;;;;;;4911556;29;20052;-87
2024/02/28 16:00:24;;;;;;;29.15;13.55;;;;;;;;;;4942286;28;20027;-88
2024/02/28 16:02:50;;;;;;;26.65;13.90;;;;;;;;;;4973896;28;20092;-88
2024/02/28 16:05:16;;;;;;;24.40;13.15;;;;;;;;;;5005912;28;20030;-86
2024/02/28 16:07:42;;;;;;;32.53;14.85;;;;;;;;;;5002394;28;20030;-81
2024/02/28 16:10:08;;;;;;;31.55;15.52;;;;;;;;;;5022906;28;20018;-82
2024/02/28 16:12:35;;;;;;;32.13;15.23;;;;;;;;;;5018609;28;20394;-85
2024/02/28 16:15:01;;;;;;;29.13;15.60;;;;;;;;;;5017769;28;20041;-84
2024/02/28 16:17:27;;;;;;;34.60;17.38;;;;;;;;;;5021151;28;20045;-87
2024/02/28 16:19:53;;;;;;;33.58;16.98;;;;;;;;;;5018782;28;20033;-88
2024/02/28 16:22:20;;;;;;;33.92;16.70;;;;;;;;;;5000966;28;20086;-86
2024/02/28 16:24:46;;;;;;;36.92;18.23;;;;;;;;;;5003214;28;20006;-86
2024/02/28 16:27:12;;;;;;;36.08;17.10;;;;;;;;;;5002760;28;20126;-84
2024/02/28 16:29:39;;;;;;;36.63;17.88;;;;;;;;;;5019281;28;20033;-83
2024/02/28 16:32:05;;;;;;;38.30;17.15;;;;;;;;;;4999322;28;20026;-88
2024/02/28 16:34:31;;;;;;;34.47;16.42;;;;;;;;;;5003660;28;20037;-89
2024/02/28 16:36:57;;;;;;;34.53;18.00;;;;;;;;;;5021867;28;20049;-87
2024/02/28 16:39:26;;;;;;;36.30;18.10;;;;;;;;;;5004135;28;20045;-85
2024/02/28 16:41:52;;;;;;;35.83;18.38;;;;;;;;;;5004103;28;20026;-81
2024/02/28 16:44:18;;;;;;;38.88;18.58;;;;;;;;;;4997920;28;20176;-84
2024/02/28 16:46:45;;;;;;;40.33;18.60;;;;;;;;;;5004607;28;20044;-84
2024/02/28 16:49:11;;;;;;;36.10;18.02;;;;;;;;;;5015371;28;20033;-84
2024/02/28 16:51:37;;;;;;;38.25;18.38;;;;;;;;;;5018082;28;20029;-85
2024/02/28 16:54:03;;;;;;;37.17;18.00;;;;;;;;;;5010673;28;20442;-88
2024/02/28 16:56:30;;;;;;;36.58;18.35;;;;;;;;;;4995431;28;20106;-80
2024/02/28 16:58:56;;;;;;;40.78;18.73;;;;;;;;;;4988839;28;20030;-87
2024/02/28 17:01:23;;;;;;;36.58;17.77;;;;;;;;;;4994129;28;20045;-85
2024/02/28 17:03:49;;;;;;;36.85;17.65;;;;;;;;;;5003328;28;20061;-81
2024/02/28 17:06:15;;;;;;;38.80;17.35;;;;;;;;;;4994297;28;20022;-85
2024/02/28 17:08:41;;;;;;;37.08;17.48;;;;;;;;;;5014783;28;20044;-84
2024/02/28 17:11:07;;;;;;;36.97;17.40;;;;;;;;;;4995445;28;20034;-86
2024/02/28 17:13:34;;;;;;;39.03;17.77;;;;;;;;;;4997938;28;20030;-80
2024/02/28 17:16:03;;;;;;;40.45;18.33;;;;;;;;;;4992883;28;20022;-83
2024/02/28 17:18:30;;;;;;;39.85;18.80;;;;;;;;;;5012390;28;20045;-81
2024/02/28 17:20:56;;;;;;;37.33;18.65;;;;;;;;;;4993912;28;20018;-87
2024/02/28 17:23:25;;;;;;;39.90;18.38;;;;;;;;;;5017656;28;20022;-83
2024/02/28 17:25:51;;;;;;;35.30;17.02;;;;;;;;;;4997284;28;20053;-83
2024/02/28 17:28:17;;;;;;;39.03;17.23;;;;;;;;;;4993607;28;20029;-82
2024/02/28 17:30:43;;;;;;;36.72;17.95;;;;;;;;;;5022431;28;20040;-84
2024/02/28 17:33:09;;;;;;;38.17;17.23;;;;;;;;;;5014899;28;20007;-84
2024/02/28 17:35:35;;;;;;;33.70;17.17;;;;;;;;;;4995099;28;20040;-85
2024/02/28 17:38:01;;;;;;;34.90;17.13;;;;;;;;;;4994650;28;20025;-86
2024/02/28 17:40:28;;;;;;;31.45;15.95;;;;;;;;;;5009394;28;20832;-88
2024/02/28 17:42:54;;;;;;;41.65;18.73;;;;;;;;;;5013526;28;20037;-84
2024/02/28 17:45:20;;;;;;;42.05;17.85;;;;;;;;;;5013332;28;20026;-85
2024/02/28 17:47:46;;;;;;;34.45;16.33;;;;;;;;;;5016620;28;20022;-84
2024/02/28 17:50:12;;;;;;;35.80;16.98;;;;;;;;;;5015160;28;20037;-84
2024/02/28 17:52:38;;;;;;;42.10;17.65;;;;;;;;;;5013301;28;20022;-84
2024/02/28 17:55:06;;;;;;;37.35;17.70;;;;;;;;;;5014034;28;20082;-81
2024/02/28 17:57:35;;;;;;;33.00;15.88;;;;;;;;;;5000689;28;20033;-82
2024/02/28 18:00:01;;;;;;;34.55;16.02;;;;;;;;;;5001952;28;20026;-86
2024/02/28 18:02:27;;;;;;;35.20;16.27;;;;;;;;;;5017980;28;20030;-84
2024/02/28 18:04:53;;;;;;;33.80;15.55;;;;;;;;;;5018862;28;20049;-83
2024/02/28 18:07:19;;;;;;;33.75;16.15;;;;;;;;;;4998924;28;20038;-85
2024/02/28 18:09:46;;;;;;;34.08;15.88;;;;;;;;;;5018863;28;20026;-85
2024/02/28 18:12:12;;;;;;;39.38;17.85;;;;;;;;;;5002901;28;20120;-85
2024/02/28 18:14:38;;;;;;;38.35;19.25;;;;;;;;;;5003078;28;20045;-86
2024/02/28 18:17:04;;;;;;;38.40;19.40;;;8.00;99.90;;;;;;5023345;28;20021;-86
2024/02/28 18:19:30;;;;;;;38.70;19.05;;;7.80;99.90;;;;;;5021126;28;20041;-87
2024/02/28 18:21:56;;;;;;;38.60;19.08;;;;;;;;;;5020091;28;20022;-84
2024/02/28 18:24:22;;;;;;;40.55;19.25;;;;;;;;;;5024372;28;20029;-86
2024/02/28 18:26:48;;;;;;;40.45;19.40;;;;;;;;;;5009219;28;20143;-84
2024/02/28 18:29:14;;;;;;;36.15;17.70;;;;;;;;;;5015177;28;20034;-88
2024/02/28 18:31:40;;;;;;;40.60;20.00;;;;;;;;;;5027208;28;20050;-82
2024/02/28 18:34:07;;;;;;;44.05;20.38;;;7.80;99.90;;;;;;5011243;28;20026;-85
2024/02/28 18:36:34;;;;;;;44.72;20.55;;;;;;;;;;5028236;28;20022;-85
2024/02/28 18:39:02;;;;;;;38.13;18.20;;;;;;;;;;5016747;28;20014;-87
2024/02/28 18:41:31;;;;;;;42.30;18.80;;;;;;;;;;5028178;28;20033;-84
2024/02/28 18:43:57;;;;;;;41.63;17.60;;;;;;;;;;5012951;28;20030;-86
2024/02/28 18:46:23;;;;;;;37.70;18.02;;;;;;;;;;5017533;28;20090;-87
2024/02/28 18:48:50;;;;;;;45.38;18.08;;;;;;;;;;5010453;28;20030;-83
2024/02/28 18:51:16;;;;;;;41.83;18.48;;;;;;;;;;5031350;28;20035;-84
2024/02/28 18:53:44;;;;;;;38.30;19.30;;;;;;;;;;5028134;28;20136;-85
2024/02/28 18:56:10;;;;;;;42.15;19.67;;;;;;;;;;5011360;28;20672;-83
2024/02/28 18:58:36;;;;;;;43.88;19.63;;;;;;;;;;5029719;28;20236;-84
2024/02/28 19:01:02;;;;;;;40.30;20.35;;;7.20;99.90;;;;;;5027224;28;20054;-84
2024/02/28 19:03:28;;;;;;;37.42;19.73;;;7.10;99.90;;;;;;5027127;28;20014;-86
2024/02/28 19:05:54;;;;;;;41.55;20.60;;;;;;;;;;5009099;28;20018;-82
2024/02/28 19:08:20;;;;;;;43.13;19.60;;;6.90;99.90;;;;;;5026128;28;20034;-81
2024/02/28 19:10:46;;;;;;;38.92;20.30;;;7.20;99.90;;;;;;5029921;28;20038;-91
2024/02/28 19:13:12;;;;;;;43.22;20.58;;;;;;;;;;5009881;28;20036;-90